Time;durP1;ratioP1;P1;durP2;ratioP2;P2;SDS_P1;SDS_P2;PMS_P1;PMS_P2;Temp;Humidity;BMP_temperature;BMP_pressure;BME280_temperature;BME280_humidity;BME280_pressure;Samples;Min_cycle;Max_cycle;Signal;HPM_P1;HPM_P2
2024/04/02 00:02:18;;;;;;;22.20;9.90;;;;;;;16.42;57.37;99460.84;109091;1256;63738;-58
2024/04/02 00:04:45;;;;;;;22.80;8.30;;;;;;;16.39;57.44;99459.91;105406;1255;61322;-56
2024/04/02 00:07:13;;;;;;;24.00;8.60;;;;;;;16.42;57.28;99455.90;105313;1260;61421;-56
2024/04/02 00:09:40;;;;;;;28.60;8.10;;;;;;;16.48;57.34;99453.80;105368;1250;65750;-56
2024/04/02 00:12:08;;;;;;;27.70;8.70;;;;;;;16.49;57.32;99448.64;105493;1257;61153;-59
2024/04/02 00:14:35;;;;;;;25.00;8.50;;;;;;;16.48;57.37;99448.59;105242;1257;62693;-57
2024/04/02 00:17:03;;;;;;;19.80;7.90;;;;;;;16.45;57.64;99447.52;105436;1254;61452;-55
2024/04/02 00:19:31;;;;;;;31.60;8.20;;;;;;;16.42;57.73;99448.13;105658;1257;61366;-56
2024/04/02 00:21:58;;;;;;;27.30;7.90;;;;;;;16.36;57.85;99450.05;106561;1258;66259;-54
2024/04/02 00:24:26;;;;;;;26.10;8.20;;;;;;;16.29;57.72;99453.39;105713;1258;61256;-56
2024/04/02 00:26:54;;;;;;;26.00;8.10;;;;;;;16.26;57.55;99447.15;105233;1259;64200;-56
2024/04/02 00:29:22;;;;;;;29.90;8.30;;;;;;;16.25;57.43;99441.48;105926;1251;61227;-57
2024/04/02 00:31:49;;;;;;;22.00;7.60;;;;;;;16.20;57.35;99441.91;105101;1257;61433;-55
2024/04/02 00:34:17;;;;;;;26.80;9.10;;;;;;;16.13;57.57;99444.23;105459;1254;65740;-56
2024/04/02 00:36:44;;;;;;;24.30;8.90;;;;;;;16.09;57.53;99443.48;105277;1258;61189;-57
2024/04/02 00:39:12;;;;;;;28.60;9.40;;;;;;;16.07;57.57;99444.77;105373;1256;65219;-55
2024/04/02 00:41:39;;;;;;;19.00;8.10;;;;;;;16.02;57.60;99439.01;105305;1254;61375;-56
2024/04/02 00:44:07;;;;;;;29.10;8.80;;;;;;;15.98;57.72;99438.08;105440;1259;61283;-55
2024/04/02 00:46:34;;;;;;;22.50;8.00;;;;;;;15.98;57.81;99440.23;105233;1257;65692;-56
2024/04/02 00:49:02;;;;;;;16.70;7.50;;;;;;;15.98;57.99;99436.27;105286;1251;61419;-55
2024/04/02 00:51:29;;;;;;;22.90;7.00;;;;;;;15.97;58.05;99436.23;105236;1257;63685;-55
2024/04/02 00:53:57;;;;;;;24.60;8.50;;;;;;;15.94;57.94;99433.58;105272;1251;61297;-56
2024/04/02 00:56:24;;;;;;;22.50;8.50;;;;;;;15.89;57.91;99431.16;105838;1254;61199;-57
2024/04/02 00:58:52;;;;;;;24.20;8.70;;;;;;;15.85;58.02;99428.45;105223;1259;65734;-56
2024/04/02 01:01:19;;;;;;;25.60;8.20;;;;;;;15.83;58.23;99424.33;105894;1257;61695;-56
2024/04/02 01:03:47;;;;;;;31.70;9.50;;;;;;;15.81;58.41;99422.72;105253;1258;62486;-56
2024/04/02 01:06:14;;;;;;;23.50;8.50;;;;;;;15.80;58.28;99421.64;105170;1254;61327;-56
2024/04/02 01:08:42;;;;;;;26.70;7.70;;;;;;;15.80;58.21;99418.76;105223;1259;61177;-56
2024/04/02 01:11:09;;;;;;;20.80;7.50;;;;;;;15.84;58.14;99420.64;105230;1254;65724;-55
2024/04/02 01:13:37;;;;;;;23.10;8.30;;;;;;;15.84;58.23;99417.63;105248;1251;61830;-56
2024/04/02 01:16:05;;;;;;;29.50;9.00;;;;;;;15.84;58.55;99413.71;105161;1254;63799;-58
2024/04/02 01:18:33;;;;;;;30.30;8.40;;;;;;;15.83;58.69;99407.89;105934;1254;61285;-57
2024/04/02 01:21:00;;;;;;;24.40;9.00;;;;;;;15.80;58.78;99400.58;105229;1252;61395;-59
2024/04/02 01:23:28;;;;;;;21.10;7.70;;;;;;;15.79;58.77;99398.20;105182;1254;65739;-58
2024/04/02 01:25:55;;;;;;;19.60;7.50;;;;;;;15.81;58.59;99404.91;105155;1257;61422;-57
2024/04/02 01:28:23;;;;;;;24.60;7.20;;;;;;;15.85;58.60;99408.13;105252;1258;62581;-56
2024/04/02 01:30:50;;;;;;;22.70;8.30;;;;;;;15.89;58.57;99403.83;105207;1254;61443;-57
2024/04/02 01:33:18;;;;;;;25.70;7.60;;;;;;;15.91;58.55;99404.98;105215;1254;61320;-56
2024/04/02 01:35:45;;;;;;;24.60;7.80;;;;;;;15.91;58.61;99398.78;105133;1254;68168;-57
2024/04/02 01:38:13;;;;;;;22.40;7.80;;;;;;;15.92;58.62;99396.35;105377;1266;61314;-56
2024/04/02 01:40:40;;;;;;;24.50;7.80;;;;;;;15.93;58.51;99387.60;105195;1257;63744;-56
2024/04/02 01:43:08;;;;;;;28.90;8.80;;;;;;;15.94;58.58;99379.46;105385;1254;61372;-57
2024/04/02 01:45:36;;;;;;;26.90;9.00;;;;;;;15.96;58.50;99373.61;106312;1254;61350;-57
2024/04/02 01:48:04;;;;;;;36.60;7.80;;;;;;;16.00;58.40;99369.95;105205;1258;65828;-55
2024/04/02 01:50:31;;;;;;;25.00;7.90;;;;;;;16.03;58.41;99366.76;106459;1254;61411;-57
2024/04/02 01:52:59;;;;;;;31.60;8.10;;;;;;;16.04;58.39;99366.41;105265;1257;64288;-54
2024/04/02 01:55:26;;;;;;;27.90;8.00;;;;;;;16.05;58.39;99367.02;105204;1257;61266;-56
2024/04/02 01:57:53;;;;;;;23.40;7.60;;;;;;;16.05;58.48;99358.77;105326;1253;61347;-55
2024/04/02 02:00:21;;;;;;;23.60;7.60;;;;;;;16.04;58.55;99354.06;105145;1251;65763;-56
2024/04/02 02:02:50;;;;;;;32.70;7.70;;;;;;;16.04;58.37;99359.34;105237;1257;63702;-55
2024/04/02 02:05:17;;;;;;;24.60;8.40;;;;;;;16.02;58.26;99363.36;105108;1257;62424;-56
2024/04/02 02:07:45;;;;;;;22.90;7.80;;;;;;;15.98;58.28;99358.69;105205;1257;61215;-57
2024/04/02 02:10:13;;;;;;;21.80;7.30;;;;;;;15.98;58.14;99349.39;105951;1254;61324;-57
2024/04/02 02:12:40;;;;;;;29.60;8.20;;;;;;;16.03;57.95;99344.60;106175;1255;66311;-57
2024/04/02 02:15:09;;;;;;;28.10;8.20;;;;;;;16.06;57.93;99339.65;105099;1254;61873;-56
2024/04/02 02:17:39;;;;;;;20.90;6.60;;;;;;;16.08;58.01;99335.70;106145;1254;63842;-56
2024/04/02 02:20:07;;;;;;;25.60;8.00;;;;;;;16.10;58.00;99334.11;105438;1256;61218;-56
2024/04/02 02:22:35;;;;;;;21.50;7.40;;;;;;;16.10;57.93;99332.80;105708;1255;61329;-57
2024/04/02 02:25:02;;;;;;;24.20;8.90;;;;;;;16.08;57.93;99329.55;105221;1260;65786;-57
2024/04/02 02:27:30;;;;;;;23.30;7.80;;;;;;;16.04;58.06;99332.66;105617;1254;61417;-57
2024/04/02 02:29:57;;;;;;;30.70;7.80;;;;;;;16.06;57.96;99334.42;105287;1257;63690;-56
2024/04/02 02:32:25;;;;;;;19.70;6.70;;;;;;;16.07;57.86;99337.46;105174;1257;64029;-57
2024/04/02 02:34:52;;;;;;;24.60;7.00;;;;;;;16.08;58.01;99339.40;105185;1254;61331;-56
2024/04/02 02:37:20;;;;;;;22.40;7.90;;;;;;;16.08;57.87;99340.46;105092;1255;64435;-56
2024/04/02 02:39:49;;;;;;;28.50;7.70;;;;;;;16.09;57.97;99337.95;105288;1257;61413;-57
2024/04/02 02:42:17;;;;;;;25.70;7.80;;;;;;;16.12;57.94;99326.95;106094;1254;74799;-56
2024/04/02 02:44:45;;;;;;;27.50;8.20;;;;;;;16.13;57.73;99322.23;106147;1257;61234;-57
2024/04/02 02:47:13;;;;;;;27.20;8.50;;;;;;;16.10;57.63;99321.00;105550;1254;61294;-57
2024/04/02 02:49:40;;;;;;;25.30;8.30;;;;;;;16.06;57.69;99321.41;105278;1257;64508;-57
2024/04/02 02:52:08;;;;;;;24.50;7.30;;;;;;;16.02;57.55;99318.53;105352;1257;61467;-57
2024/04/02 02:54:35;;;;;;;20.70;7.40;;;;;;;16.02;57.58;99316.42;105265;1259;63743;-60
2024/04/02 02:57:03;;;;;;;26.70;7.60;;;;;;;16.04;57.49;99317.62;105257;1254;61346;-56
2024/04/02 02:59:31;;;;;;;23.80;8.00;;;;;;;16.07;57.48;99322.41;105793;1256;61227;-57
2024/04/02 03:01:58;;;;;;;23.50;8.30;;;;;;;16.09;57.51;99321.81;106567;1253;65709;-56
2024/04/02 03:04:25;;;;;;;25.50;8.10;;;;;;;16.10;57.44;99318.08;105356;1256;61573;-55
2024/04/02 03:06:53;;;;;;;30.30;7.70;;;;;;;16.12;57.33;99317.91;105349;1257;62493;-55
2024/04/02 03:09:21;;;;;;;26.40;7.40;;;;;;;16.12;57.22;99317.73;105410;1254;61346;-56
2024/04/02 03:11:48;;;;;;;19.90;7.40;;;;;;;16.12;57.04;99317.89;105942;1257;61248;-59
2024/04/02 03:14:15;;;;;;;28.30;7.50;;;;;;;16.12;57.03;99319.48;105289;1254;65761;-56
2024/04/02 03:16:43;;;;;;;24.10;6.50;;;;;;;16.15;57.00;99317.39;105259;1254;61484;-56
2024/04/02 03:19:10;;;;;;;23.80;7.30;;;;;;;16.21;56.85;99315.05;105301;1254;63794;-56
2024/04/02 03:21:38;;;;;;;21.90;8.00;;;;;;;16.23;56.79;99308.11;105364;1257;61274;-56
2024/04/02 03:24:06;;;;;;;24.30;7.80;;;;;;;16.22;56.87;99305.89;105588;1254;61449;-57
2024/04/02 03:26:33;;;;;;;27.50;7.50;;;;;;;16.21;56.77;99305.38;105175;1252;64452;-57
2024/04/02 03:29:01;;;;;;;24.30;7.10;;;;;;;16.19;56.78;99306.63;105464;1257;62011;-57
2024/04/02 03:31:28;;;;;;;23.70;7.60;;;;;;;16.16;56.88;99307.89;105814;1257;62446;-56
2024/04/02 03:33:59;;;;;;;25.10;6.50;;;;;;;16.13;57.02;99308.96;105320;1254;61237;-55
2024/04/02 03:36:26;;;;;;;17.50;7.00;;;;;;;16.18;56.89;99306.93;105146;1257;61183;-56
2024/04/02 03:38:53;;;;;;;34.90;8.00;;;;;;;16.24;56.88;99304.89;105803;1254;66244;-55
2024/04/02 03:41:21;;;;;;;20.50;7.50;;;;;;;16.27;56.75;99301.29;105873;1254;61389;-55
2024/04/02 03:43:49;;;;;;;21.20;7.70;;;;;;;16.27;56.69;99297.40;105310;1257;63683;-58
2024/04/02 03:46:16;;;;;;;22.90;7.10;;;;;;;16.25;56.57;99294.98;105168;1254;61289;-55
2024/04/02 03:48:43;;;;;;;25.40;8.30;;;;;;;16.22;56.53;99289.87;105220;1257;61375;-55
2024/04/02 03:51:11;;;;;;;23.80;7.30;;;;;;;16.17;56.53;99289.30;105160;1254;64610;-56
2024/04/02 03:53:38;;;;;;;25.00;7.40;;;;;;;16.12;56.47;99288.17;105295;1259;61603;-56
2024/04/02 03:56:06;;;;;;;21.70;7.00;;;;;;;16.06;56.57;99284.67;105140;1257;63796;-55
2024/04/02 03:58:34;;;;;;;21.50;7.30;;;;;;;16.03;56.65;99283.04;105790;1257;61384;-55
2024/04/02 04:01:04;;;;;;;22.40;6.70;;;;;;;16.03;56.85;99281.73;105070;1257;61223;-55
2024/04/02 04:03:32;;;;;;;24.70;6.80;;;;;;;16.03;56.84;99276.59;105679;1257;66206;-56
2024/04/02 04:06:00;;;;;;;27.40;7.60;;;;;;;16.01;56.99;99269.17;105567;1254;61462;-54
2024/04/02 04:08:28;;;;;;;20.00;7.70;;;;;;;15.99;57.19;99264.41;105654;1257;63750;-54
2024/04/02 04:10:55;;;;;;;27.20;6.70;;;;;;;16.00;57.29;99258.15;106460;1254;61414;-54
2024/04/02 04:13:23;;;;;;;23.40;6.80;;;;;;;15.99;57.35;99253.13;105128;1253;61372;-52
2024/04/02 04:15:55;;;;;;;18.50;7.40;;;;;;;15.96;57.45;99255.24;105231;1257;68359;-57
2024/04/02 04:18:23;;;;;;;25.70;7.80;;;;;;;15.95;57.59;99257.52;106696;1253;61379;-58
2024/04/02 04:20:55;;;;;;;23.50;6.70;;;;;;;15.99;57.21;99246.18;105777;1252;63723;-57
2024/04/02 04:23:23;;;;;;;22.50;7.20;;;;;;;16.06;57.21;99238.47;105778;1253;61154;-57
2024/04/02 04:25:57;;;;;;;25.70;9.20;;;;;;;16.10;57.23;99237.16;106006;1253;61349;-51
2024/04/02 04:28:25;;;;;;;22.80;6.60;;;;;;;16.11;57.23;99229.16;105847;1254;64690;-50
2024/04/02 04:30:54;;;;;;;25.40;7.80;;;;;;;16.14;57.14;99221.52;105811;1253;61376;-53
2024/04/02 04:33:22;;;;;;;28.30;7.30;;;;;;;16.19;57.02;99216.27;108305;1254;62441;-52
2024/04/02 04:35:49;;;;;;;22.10;7.00;;;;;;;16.22;57.09;99206.54;104945;1253;61320;-50
2024/04/02 04:38:17;;;;;;;27.60;8.00;;;;;;;16.23;56.99;99206.05;109038;1253;59343;-52
2024/04/02 04:40:45;;;;;;;23.30;7.40;;;;;;;16.25;56.77;99206.20;105262;1254;66159;-56
2024/04/02 04:43:14;;;;;;;27.40;8.90;;;;;;;16.31;56.65;99204.34;104989;1257;61503;-54
2024/04/02 04:45:52;;;;;;;33.10;7.60;;;;;;;16.38;56.64;99195.96;105329;1257;64010;-52
2024/04/02 04:48:20;;;;;;;23.50;7.40;;;;;;;16.43;56.41;99191.96;106726;1257;61123;-52
2024/04/02 04:51:01;;;;;;;25.90;6.90;;;;;;;16.47;56.31;99191.91;105132;1258;61640;-51
2024/04/02 04:53:29;;;;;;;27.20;7.30;;;;;;;16.51;56.17;99183.62;105256;1253;64432;-50
2024/04/02 04:56:04;;;;;;;20.00;6.70;;;;;;;16.55;55.97;99176.92;105776;1256;61332;-49
2024/04/02 04:58:35;;;;;;;27.10;8.50;;;;;;;16.60;55.91;99175.64;105665;1253;65764;-56
2024/04/02 05:01:03;;;;;;;22.40;6.60;;;;;;;16.61;55.84;99175.45;106532;1254;61135;-53
2024/04/02 05:03:32;;;;;;;24.10;7.60;;;;;;;16.60;55.79;99175.89;105766;1254;61232;-61
2024/04/02 05:06:07;;;;;;;33.90;7.20;;;;;;;16.63;55.65;99170.61;105713;1253;64595;-48
2024/04/02 05:08:35;;;;;;;20.60;7.30;;;;;;;16.68;55.51;99175.98;105738;1254;61270;-52
2024/04/02 05:11:05;;;;;;;18.60;8.30;;;;;;;16.73;55.43;99177.48;105332;1253;64239;-53
2024/04/02 05:13:33;;;;;;;17.80;6.90;;;;;;;16.79;55.31;99175.67;105232;1253;61350;-54
2024/04/02 05:16:01;;;;;;;22.80;7.20;;;;;;;16.85;55.23;99169.74;104977;1257;61182;-55
2024/04/02 05:18:29;;;;;;;23.80;7.00;;;;;;;16.89;55.10;99167.98;107308;1253;64517;-56
2024/04/02 05:20:57;;;;;;;25.50;8.10;;;;;;;16.92;55.09;99163.91;105168;1254;61904;-57
2024/04/02 05:23:26;;;;;;;25.20;7.50;;;;;;;16.95;54.93;99161.23;106638;1253;63711;-54
2024/04/02 05:26:00;;;;;;;26.80;7.70;;;;;;;16.95;54.87;99160.09;105209;1257;61195;-58
2024/04/02 05:28:28;;;;;;;24.80;7.30;;;;;;;16.95;54.86;99155.63;105828;1257;61413;-54
2024/04/02 05:30:55;;;;;;;28.60;6.50;;;;;;;17.01;54.96;99156.16;105133;1257;65839;-56
2024/04/02 05:33:23;;;;;;;26.30;8.10;;;;;;;17.10;54.73;99161.16;105073;1257;61348;-56
2024/04/02 05:35:51;;;;;;;23.20;7.00;;;;;;;17.18;54.48;99169.07;105189;1253;62509;-58
2024/04/02 05:38:18;;;;;;;35.70;7.80;;;;;;;17.23;54.21;99170.61;105027;1253;61339;-58
2024/04/02 05:40:46;;;;;;;24.10;7.70;;;;;;;17.26;54.14;99173.28;109340;1252;59342;-65
2024/04/02 05:43:13;;;;;;;23.40;7.60;;;;;;;17.31;54.05;99173.31;108930;1253;68906;-62
2024/04/02 05:45:41;;;;;;;24.20;7.50;;;;;;;17.35;53.93;99164.58;109310;1253;61531;-59
2024/04/02 05:48:08;;;;;;;20.90;6.80;;;;;;;17.41;54.05;99150.95;109224;1252;63794;-63
2024/04/02 05:50:35;;;;;;;18.10;6.40;;;;;;;17.46;54.01;99140.90;109216;1253;59206;-65
2024/04/02 05:53:03;;;;;;;22.30;7.30;;;;;;;17.50;54.09;99127.75;109070;1252;59221;-66
2024/04/02 05:55:30;;;;;;;17.60;6.10;;;;;;;17.58;54.12;99119.06;105705;1253;65725;-58
2024/04/02 05:57:58;;;;;;;23.40;6.70;;;;;;;17.68;53.80;99117.95;105133;1257;61337;-61
2024/04/02 06:00:28;;;;;;;23.60;7.30;;;;;;;17.75;53.73;99127.15;105947;1258;66088;-70
2024/04/02 06:02:55;;;;;;;25.20;7.20;;;;;;;17.82;53.88;99126.64;107325;1254;61225;-66
2024/04/02 06:05:23;;;;;;;25.20;7.40;;;;;;;17.89;53.64;99127.25;105608;1253;61153;-62
2024/04/02 06:07:57;;;;;;;24.70;6.60;;;;;;;17.92;53.56;99118.08;105024;1257;66435;-63
2024/04/02 06:10:26;;;;;;;26.80;7.90;;;;;;;17.96;53.07;99111.70;105209;1259;61490;-63
2024/04/02 06:12:54;;;;;;;32.70;8.90;;;;;;;17.98;52.60;99107.33;109118;1253;62613;-62
2024/04/02 06:15:23;;;;;;;23.10;7.10;;;;;;;18.02;52.69;99100.30;109106;1253;59249;-62
2024/04/02 06:17:51;;;;;;;23.20;7.50;;;;;;;18.09;52.61;99094.94;109126;1253;62135;-60
2024/04/02 06:20:19;;;;;;;30.90;6.30;;;;;;;18.15;52.47;99091.14;109190;1253;76870;-60
2024/04/02 06:22:46;;;;;;;26.40;6.50;;;;;;;18.20;52.45;99090.45;109140;1253;61548;-64
2024/04/02 06:25:14;;;;;;;23.00;6.80;;;;;;;18.28;52.07;99087.79;105974;1257;63905;-55
2024/04/02 06:27:42;;;;;;;25.10;7.70;;;;;;;18.40;51.67;99083.14;104903;1253;61236;-60
2024/04/02 06:30:10;;;;;;;28.10;7.50;;;;;;;18.49;51.43;99077.90;109098;1252;59305;-59
2024/04/02 06:32:37;;;;;;;22.50;6.70;;;;;;;18.55;51.12;99082.40;109111;1252;76799;-68
2024/04/02 06:35:05;;;;;;;28.60;7.00;;;;;;;18.60;51.17;99085.30;109162;1253;72266;-66
2024/04/02 06:37:32;;;;;;;24.90;7.40;;;;;;;18.63;51.20;99078.09;109164;1253;62691;-67
2024/04/02 06:40:00;;;;;;;27.00;7.50;;;;;;;18.68;51.11;99083.63;109058;1253;60173;-63
2024/04/02 06:42:28;;;;;;;25.40;7.70;;;;;;;18.72;51.15;99091.51;109163;1253;62177;-60
2024/04/02 06:44:55;;;;;;;26.10;8.00;;;;;;;18.75;51.12;99090.40;106001;1253;68409;-59
2024/04/02 06:47:23;;;;;;;23.60;8.00;;;;;;;18.78;50.87;99084.88;105739;1253;62535;-58
2024/04/02 06:49:50;;;;;;;20.70;7.70;;;;;;;18.80;50.90;99081.05;105293;1257;63999;-56
2024/04/02 06:52:18;;;;;;;20.50;6.80;;;;;;;18.82;50.74;99079.20;105166;1257;61277;-59
2024/04/02 06:54:45;;;;;;;22.80;7.50;;;;;;;18.83;50.61;99070.83;105264;1253;61306;-60
2024/04/02 06:57:13;;;;;;;30.70;8.40;;;;;;;18.86;50.40;99066.31;105142;1257;76893;-58
2024/04/02 06:59:41;;;;;;;21.90;7.20;;;;;;;18.86;50.25;99056.39;105171;1253;63775;-60
2024/04/02 07:02:09;;;;;;;22.40;7.60;;;;;;;18.85;49.95;99058.36;105116;1253;74911;-60
2024/04/02 07:04:36;;;;;;;26.50;8.50;;;;;;;18.82;49.88;99056.90;105173;1253;62605;-59
2024/04/02 07:07:04;;;;;;;27.90;8.60;;;;;;;18.80;49.93;99050.35;105233;1253;62029;-61
2024/04/02 07:09:33;;;;;;;24.50;8.00;;;;;;;18.78;49.94;99043.30;105696;1253;76718;-59
2024/04/02 07:12:01;;;;;;;29.10;8.90;;;;;;;18.78;50.03;99038.54;105048;1258;63546;-63
2024/04/02 07:14:28;;;;;;;32.00;8.10;;;;;;;18.80;49.90;99029.40;105125;1253;74710;-57
2024/04/02 07:16:56;;;;;;;26.60;8.30;;;;;;;18.81;49.85;99025.25;107245;1254;61269;-59
2024/04/02 07:19:23;;;;;;;25.10;8.40;;;;;;;18.84;49.68;99016.75;105212;1257;61344;-56
2024/04/02 07:21:51;;;;;;;25.80;8.80;;;;;;;18.88;49.64;99008.04;105203;1257;66252;-58
2024/04/02 07:24:19;;;;;;;29.00;8.30;;;;;;;18.92;49.59;99003.52;105756;1255;71633;-57
2024/04/02 07:26:46;;;;;;;34.20;7.90;;;;;;;18.97;49.38;99000.91;105101;1255;63932;-57
2024/04/02 07:29:14;;;;;;;22.60;8.00;;;;;;;19.02;49.25;98999.30;105248;1253;63901;-58
2024/04/02 07:31:41;;;;;;;25.40;7.80;;;;;;;19.07;49.36;99000.70;105094;1253;61121;-57
2024/04/02 07:34:09;;;;;;;21.70;7.70;;;;;;;19.13;49.16;99003.55;105166;1257;67864;-55
2024/04/02 07:36:36;;;;;;;26.00;7.40;;;;;;;19.17;49.27;99001.48;105252;1252;61736;-60
2024/04/02 07:39:07;;;;;;;25.30;7.70;;;;;;;19.26;49.16;98994.79;105791;1253;74916;-59
2024/04/02 07:41:35;;;;;;;32.20;8.00;;;;;;;19.34;49.00;98989.41;105081;1253;61305;-65
2024/04/02 07:44:03;;;;;;;26.10;7.90;;;;;;;19.42;48.90;98982.92;105166;1253;62425;-66
2024/04/02 07:46:31;;;;;;;37.90;8.80;;;;;;;19.49;48.85;98984.71;106034;1257;65863;-65
2024/04/02 07:48:58;;;;;;;31.00;8.60;;;;;;;19.58;48.81;98979.29;105227;1257;63697;-64
2024/04/02 07:51:26;;;;;;;32.90;8.30;;;;;;;19.66;48.49;98973.70;105224;1253;64102;-64
2024/04/02 07:53:54;;;;;;;31.40;8.00;;;;;;;19.76;48.41;98976.81;105298;1252;62180;-60
2024/04/02 07:56:22;;;;;;;27.50;7.90;;;;;;;19.84;48.09;98965.77;104809;1253;291863;-60
2024/04/02 07:59:28;;;;;;;25.70;7.80;;;;;;;19.64;48.49;98954.98;102015;1291;601168;-60
2024/04/02 08:01:56;;;;;;;28.90;8.60;;;;;;;20.02;47.83;98946.41;103944;1271;59849;-58
2024/04/02 08:04:24;;;;;;;29.20;7.30;;;;;;;20.15;47.67;98935.94;108286;1267;62164;-64
2024/04/02 08:06:52;;;;;;;24.30;7.60;;;;;;;20.27;47.50;98926.11;108270;1270;65111;-57
2024/04/02 08:09:20;;;;;;;22.50;7.00;;;;;;;20.39;47.01;98911.04;108340;1269;71610;-62
2024/04/02 08:11:47;;;;;;;24.80;6.70;;;;;;;20.50;46.64;98906.83;108238;1269;74896;-60
2024/04/02 08:14:15;;;;;;;20.90;6.40;;;;;;;20.57;46.41;98903.74;108335;1264;158778;-57
2024/04/02 08:16:42;;;;;;;42.10;8.20;;;;;;;20.64;46.00;98902.79;107172;1266;59743;-58
2024/04/02 08:19:09;;;;;;;29.10;8.40;;;;;;;20.70;45.92;98903.70;104655;1266;66479;-56
2024/04/02 08:21:37;;;;;;;28.70;7.30;;;;;;;20.74;45.87;98902.16;104323;1269;60623;-58
2024/04/02 08:24:05;;;;;;;27.00;7.70;;;;;;;20.78;45.78;98902.41;104730;1269;72590;-57
2024/04/02 08:26:32;;;;;;;27.60;7.40;;;;;;;20.81;45.54;98894.80;104462;1272;60634;-57
2024/04/02 08:29:00;;;;;;;26.30;7.60;;;;;;;20.84;45.62;98887.52;104495;1272;60576;-60
2024/04/02 08:31:30;;;;;;;24.40;7.90;;;;;;;20.89;45.50;98883.15;105417;1259;63797;-58
2024/04/02 08:33:57;;;;;;;31.10;8.40;;;;;;;20.93;45.68;98873.58;105000;1258;71178;-58
2024/04/02 08:36:25;;;;;;;37.90;9.20;;;;;;;20.99;45.72;98870.21;105000;1262;64031;-58
2024/04/02 08:38:53;;;;;;;29.30;7.70;;;;;;;21.06;45.46;98872.52;105018;1262;60326;-62
2024/04/02 08:41:21;;;;;;;40.30;11.10;;;;;;;21.13;45.28;98868.80;104937;1262;60555;-75
2024/04/02 08:43:50;;;;;;;33.40;9.50;;;;;;;21.24;45.27;98865.71;105816;1259;65423;-59
2024/04/02 08:46:17;;;;;;;32.50;8.60;;;;;;;21.35;45.05;98862.38;105215;1259;63498;-58
2024/04/02 08:48:45;;;;;;;25.00;7.70;;;;;;;21.47;44.60;98859.57;105159;1259;74897;-60
2024/04/02 08:51:14;;;;;;;28.00;7.60;;;;;;;21.56;44.43;98855.73;105061;1253;60534;-58
2024/04/02 08:53:42;;;;;;;29.00;7.90;;;;;;;21.66;44.12;98850.66;105206;1259;62217;-58
2024/04/02 08:56:10;;;;;;;32.60;8.10;;;;;;;21.74;43.70;98843.77;106151;1257;76392;-59
2024/04/02 08:58:38;;;;;;;34.10;7.80;;;;;;;21.79;43.60;98840.59;105240;1264;70653;-65
2024/04/02 09:01:06;;;;;;;40.00;11.40;;;;;;;21.85;43.48;98837.59;105307;1257;64142;-65
2024/04/02 09:03:34;;;;;;;37.90;10.70;;;;;;;21.92;43.14;98834.63;105234;1260;60591;-64
2024/04/02 09:06:03;;;;;;;33.50;9.30;;;;;;;22.00;43.06;98828.66;105314;1256;60435;-64
2024/04/02 09:08:32;;;;;;;32.50;9.10;;;;;;;22.09;42.76;98820.38;106123;1254;74976;-59
2024/04/02 09:11:00;;;;;;;34.30;8.00;;;;;;;22.19;42.71;98813.98;105700;1257;60681;-54
2024/04/02 09:13:27;;;;;;;35.10;8.00;;;;;;;22.32;43.01;98810.20;105142;1261;62873;-58
2024/04/02 09:15:55;;;;;;;33.30;8.70;;;;;;;22.48;42.89;98795.81;105300;1259;61058;-56
2024/04/02 09:18:23;;;;;;;20.90;7.40;;;;;;;22.62;42.26;98788.82;105743;1253;60589;-58
2024/04/02 09:20:51;;;;;;;30.00;9.10;;;;;;;22.76;42.38;98786.14;105171;1259;67264;-60
2024/04/02 09:23:19;;;;;;;33.80;9.80;;;;;;;22.92;42.25;98787.27;105331;1259;63607;-59
2024/04/02 09:25:48;;;;;;;36.40;9.50;;;;;;;23.08;41.57;98786.05;105137;1259;64500;-57
2024/04/02 09:28:16;;;;;;;32.90;8.90;;;;;;;23.25;40.45;98777.73;105989;1260;60553;-69
2024/04/02 09:30:43;;;;;;;32.50;7.80;;;;;;;23.41;39.06;98772.38;105081;1254;60985;-59
2024/04/02 09:33:10;;;;;;;26.20;7.50;;;;;;;23.53;38.74;98754.68;105272;1259;67629;-59
2024/04/02 09:36:09;;;;;;;36.50;7.70;;;;;;;23.67;38.85;98749.23;105071;1259;63435;-57
2024/04/02 09:38:37;;;;;;;33.80;8.70;;;;;;;23.83;38.19;98743.40;105217;1257;66245;-59
2024/04/02 09:41:04;;;;;;;32.80;8.20;;;;;;;23.99;37.83;98733.17;105299;1254;60445;-62
2024/04/02 09:43:33;;;;;;;34.50;7.60;;;;;;;24.14;37.23;98739.94;105444;1256;60517;-55
2024/04/02 09:46:01;;;;;;;27.10;7.70;;;;;;;24.29;37.56;98737.09;105515;1254;76112;-64
2024/04/02 09:48:42;;;;;;;43.00;8.30;;;;;;;24.42;36.53;98731.90;106538;1259;63686;-56
2024/04/02 09:51:09;;;;;;;37.20;7.50;;;;;;;24.52;35.94;98728.02;105047;1254;74965;-66
2024/04/02 09:53:37;;;;;;;33.90;8.70;;;;;;;24.62;35.34;98726.20;104974;1260;60930;-59
2024/04/02 09:56:07;;;;;;;30.70;7.10;;;;;;;24.73;34.95;98726.30;104953;1258;60536;-60
2024/04/02 09:58:34;;;;;;;30.80;8.80;;;;;;;24.81;35.08;98720.06;105440;1254;76255;-64
2024/04/02 10:01:03;;;;;;;27.70;8.30;;;;;;;24.90;34.60;98714.48;104969;1263;62344;-61
2024/04/02 10:03:31;;;;;;;33.80;7.40;;;;;;;24.97;34.60;98708.04;105116;1258;62853;-67
2024/04/02 10:06:04;;;;;;;35.60;8.50;;;;;;;25.01;34.45;98704.89;104994;1254;60616;-61
2024/04/02 10:08:31;;;;;;;30.60;8.40;;;;;;;25.00;34.31;98705.91;105729;1259;60323;-64
2024/04/02 10:11:01;;;;;;;26.00;8.10;;;;;;;25.01;34.95;98703.92;105617;1254;76048;-62
2024/04/02 10:13:39;;;;;;;29.20;8.20;;;;;;;25.04;34.34;98707.55;105708;1254;72449;-58
2024/04/02 10:16:10;;;;;;;47.60;10.00;;;;;;;25.06;34.37;98699.86;105360;1259;62604;-58
2024/04/02 10:18:45;;;;;;;33.10;7.60;;;;;;;25.09;34.46;98694.55;106046;1255;60551;-60
2024/04/02 10:21:15;;;;;;;35.50;8.10;;;;;;;25.13;34.57;98693.77;105118;1254;60977;-69
2024/04/02 10:23:43;;;;;;;32.70;8.40;;;;;;;25.20;34.46;98690.20;105990;1254;67525;-62
2024/04/02 10:26:10;;;;;;;29.50;8.00;;;;;;;25.25;33.88;98681.10;106041;1260;72645;-66
2024/04/02 10:28:38;;;;;;;35.00;9.30;;;;;;;25.27;33.87;98676.60;105868;1254;65979;-60
2024/04/02 10:31:16;;;;;;;33.00;7.80;;;;;;;25.31;33.96;98668.83;105535;1257;60588;-62
2024/04/02 10:33:44;;;;;;;36.90;8.70;;;;;;;25.42;33.72;98659.07;106041;1254;60549;-62
2024/04/02 10:36:12;;;;;;;21.60;6.90;;;;;;;25.51;33.54;98657.05;105399;1261;67542;-62
2024/04/02 10:38:40;;;;;;;31.60;8.20;;;;;;;25.58;33.67;98657.58;105209;1255;64258;-68
2024/04/02 10:41:07;;;;;;;30.00;7.80;;;;;;;25.66;33.66;98656.48;106060;1260;64974;-68
2024/04/02 10:43:35;;;;;;;32.40;8.10;;;;;;;25.75;33.01;98656.83;105267;1255;60399;-67
2024/04/02 10:46:03;;;;;;;32.00;7.60;;;;;;;25.82;32.80;98651.18;105292;1255;60674;-60
2024/04/02 10:48:30;;;;;;;29.90;9.00;;;;;;;25.85;33.15;98653.36;106207;1258;64040;-64
2024/04/02 10:50:58;;;;;;;27.60;7.70;;;;;;;25.87;33.29;98651.27;105501;1260;62592;-71
2024/04/02 10:53:26;;;;;;;39.30;9.00;;;;;;;25.92;33.31;98645.63;106231;1254;74914;-72
2024/04/02 10:55:54;;;;;;;39.20;9.80;;;;;;;26.01;33.27;98636.99;106026;1254;61006;-77
2024/04/02 10:58:21;;;;;;;30.80;7.80;;;;;;;26.09;33.66;98638.34;106212;1254;60753;-72
2024/04/02 11:00:51;;;;;;;27.60;8.70;;;;;;;26.19;32.65;98635.98;106252;1254;74874;-69
2024/04/02 11:03:18;;;;;;;27.60;8.50;;;;;;;26.24;32.33;98630.87;106219;1257;60973;-67
2024/04/02 11:05:46;;;;;;;28.00;8.20;;;;;;;26.27;32.68;98624.66;106143;1254;72652;-65
2024/04/02 11:08:13;;;;;;;36.70;9.60;;;;;;;26.30;32.52;98615.23;105708;1255;61460;-65
2024/04/02 11:10:50;;;;;;;30.90;9.10;;;;;;;26.35;32.52;98612.90;106104;1254;60370;-68
2024/04/02 11:13:25;;;;;;;26.60;8.10;;;;;;;26.41;32.27;98614.36;106178;1260;67257;-71
2024/04/02 11:15:53;;;;;;;32.40;7.60;;;;;;;26.46;32.27;98603.69;106410;1258;60445;-62
2024/04/02 11:18:24;;;;;;;23.50;7.50;;;;;;;26.53;32.18;98597.27;105735;1254;73811;-62
2024/04/02 11:20:58;;;;;;;28.80;8.10;;;;;;;26.63;31.85;98593.44;105474;1255;62338;-63
2024/04/02 11:26:18;;;;;;;28.20;8.60;;;;;;;26.83;31.29;98584.19;106115;1254;74774;-62